Time;durP1;ratioP1;P1;durP2;ratioP2;P2;SDS_P1;SDS_P2;PMS_P1;PMS_P2;Temp;Humidity;BMP_temperature;BMP_pressure;BME280_temperature;BME280_humidity;BME280_pressure;Samples;Min_cycle;Max_cycle;Signal;HPM_P1;HPM_P2
2023/06/03 00:02:25;;;;;;;8.02;3.72;;;;;;;;;;5128764;27;20043;-59
2023/06/03 00:04:52;;;;;;;6.35;3.55;;;;;;;;;;5132481;27;20351;-59
2023/06/03 00:07:20;;;;;;;6.70;3.75;;;;;;;;;;5128501;27;20050;-59
2023/06/03 00:09:47;;;;;;;6.57;3.53;;;;;;;;;;5126484;27;20046;-59
2023/06/03 00:12:14;;;;;;;6.70;4.18;;;;;;;;;;5130919;27;20047;-59
2023/06/03 00:14:41;;;;;;;7.18;3.65;;;;;;;;;;5134021;27;20051;-59
2023/06/03 00:17:08;;;;;;;5.00;4.05;;;;;;;;;;5134159;27;20051;-59
2023/06/03 00:19:35;;;;;;;7.70;4.45;;;;;;;;;;5134309;27;20046;-58
2023/06/03 00:22:02;;;;;;;6.32;4.22;;;;;;;;;;5134115;27;20059;-58
2023/06/03 00:24:30;;;;;;;8.35;4.10;;;;;;;;;;5131344;27;20051;-57
2023/06/03 00:26:58;;;;;;;7.20;4.50;;;;;;;;;;5131751;27;20074;-60
2023/06/03 00:29:25;;;;;;;9.23;4.40;;;;;;;;;;5129794;27;20047;-59
2023/06/03 00:31:52;;;;;;;7.88;4.38;;;;;;;;;;5137222;27;20406;-59
2023/06/03 00:34:19;;;;;;;5.68;3.92;;;;;;;;;;5132164;27;20062;-58
2023/06/03 00:36:45;;;;;;;5.10;3.75;;;;;;;;;;5130556;27;20167;-58
2023/06/03 00:39:12;;;;;;;6.10;3.97;;;;;;;;;;5130133;27;20050;-59
2023/06/03 00:41:41;;;;;;;6.97;4.05;;;;;;;;;;5137713;27;20051;-58
2023/06/03 00:44:07;;;;;;;7.40;4.22;;;;;;;;;;5131089;27;20074;-58
2023/06/03 00:46:35;;;;;;;9.70;4.45;;;;;;;;;;5113794;27;20051;-59
2023/06/03 00:49:02;;;;;;;9.35;4.20;;;;;;;;;;5132007;27;20057;-58
2023/06/03 00:51:29;;;;;;;7.65;4.10;;;;;;;;;;5131466;27;20055;-59
2023/06/03 00:53:56;;;;;;;7.45;4.53;;;;;;;;;;5129722;27;20054;-58
2023/06/03 00:56:23;;;;;;;10.65;4.68;;;;;;;;;;5130860;27;20055;-58
2023/06/03 00:58:51;;;;;;;5.57;4.47;;;;;;;;;;5133056;27;20403;-59
2023/06/03 01:01:19;;;;;;;8.20;4.35;;;;;;;;;;5130702;27;20391;-59
2023/06/03 01:03:47;;;;;;;6.60;4.57;;;;;;;;;;5129980;27;20487;-59
2023/06/03 01:06:18;;;;;;;6.68;4.70;;;;;;;;;;5128410;27;20082;-59
2023/06/03 01:08:50;;;;;;;17.40;4.97;;;;;;;;;;5127924;27;20047;-59
2023/06/03 01:11:21;;;;;;;7.18;4.78;;;;;;;;;;5134220;27;20046;-59
2023/06/03 01:13:50;;;;;;;6.63;4.93;;;;;;;;;;5129467;27;20061;-61
2023/06/03 01:16:22;;;;;;;7.55;4.55;;;;;;;;;;5130587;27;20053;-60
2023/06/03 01:18:49;;;;;;;10.20;4.88;;;;;;;;;;5133700;27;20043;-61
2023/06/03 01:21:16;;;;;;;9.20;5.00;;;;;;;;;;5113540;28;20051;-59
2023/06/03 01:23:44;;;;;;;7.85;5.35;;;;;;;;;;5122253;27;20054;-61
2023/06/03 01:26:12;;;;;;;8.65;4.85;;;;;;;;;;5132585;28;20047;-60
2023/06/03 01:28:39;;;;;;;7.68;4.78;;;;;;;;;;5131423;27;20055;-60
2023/06/03 01:31:06;;;;;;;6.25;4.47;;;;;;;;;;5128134;27;20058;-60
2023/06/03 01:33:34;;;;;;;6.07;4.20;;;;;;;;;;5129688;28;20411;-60
2023/06/03 01:36:03;;;;;;;5.70;4.10;;;;;;;;;;5126185;28;20047;-59
2023/06/03 01:38:30;;;;;;;5.63;4.47;;;;;;;;;;5131654;28;20046;-59
2023/06/03 01:40:59;;;;;;;6.72;3.78;;;;;;;;;;5130791;28;20051;-59
2023/06/03 01:43:25;;;;;;;7.25;4.55;;;;;;;;;;5131417;28;20054;-59
2023/06/03 01:45:53;;;;;;;6.32;4.25;;;;;;;;;;5129420;27;20062;-60
2023/06/03 01:48:20;;;;;;;5.43;3.78;;;;;;;;;;5131191;28;20637;-60
2023/06/03 01:50:46;;;;;;;7.95;4.90;;;;;;;;;;5130854;27;20066;-59
2023/06/03 01:53:14;;;;;;;7.38;4.30;;;;;;;;;;5129792;28;20055;-60
2023/06/03 01:55:41;;;;;;;7.80;4.63;;;;;;;;;;5123150;28;20047;-60
2023/06/03 01:58:09;;;;;;;7.32;4.50;;;;;;;;;;5130686;28;20047;-60
2023/06/03 02:00:36;;;;;;;6.93;4.85;;;;;;;;;;5109511;27;20048;-60
2023/06/03 02:03:03;;;;;;;8.18;5.20;;;;;;;;;;5127145;28;20051;-60
2023/06/03 02:05:30;;;;;;;7.28;4.63;;;;;;;;;;5122552;28;20051;-60
2023/06/03 02:07:56;;;;;;;7.53;4.93;;;;;;;;;;5131601;28;20051;-60
2023/06/03 02:10:23;;;;;;;8.70;4.50;;;;;;;;;;5121744;28;20039;-60
2023/06/03 02:12:50;;;;;;;8.00;5.05;;;;;;;;;;5129157;28;20050;-60
2023/06/03 02:15:18;;;;;;;8.32;4.47;;;;;;;;;;5130530;27;20047;-60
2023/06/03 02:17:45;;;;;;;9.60;4.93;;;;;;;;;;5132976;28;20062;-59
2023/06/03 02:20:12;;;;;;;7.53;5.03;;;;;;;;;;5133220;28;20050;-58
2023/06/03 02:22:39;;;;;;;8.50;4.88;;;;;;;;;;5131498;27;20050;-58
2023/06/03 02:25:08;;;;;;;7.45;5.13;;;;;;;;;;5137721;27;20055;-59
2023/06/03 02:27:36;;;;;;;6.72;4.65;;;;;;;;;;5127055;27;20543;-59
2023/06/03 02:30:04;;;;;;;7.50;5.05;;;;;;;;;;5133572;27;20051;-58
2023/06/03 02:32:33;;;;;;;6.57;4.78;;;;;;;;;;5133292;27;20043;-59
2023/06/03 02:34:59;;;;;;;8.10;4.82;;;;;;;;;;5131426;27;20058;-59
2023/06/03 02:37:27;;;;;;;8.82;4.85;;;;;;;;;;5134476;27;20070;-59
2023/06/03 02:39:54;;;;;;;7.07;4.90;;;;;;;;;;5134009;27;20047;-59
2023/06/03 02:42:21;;;;;;;6.65;5.03;;;;;;;;;;5134521;27;20047;-59
2023/06/03 02:44:48;;;;;;;8.23;5.13;;;;;;;;;;5134641;27;20403;-59
2023/06/03 02:47:15;;;;;;;7.05;5.20;;;;;;;;;;5125585;27;20067;-59
2023/06/03 02:49:45;;;;;;;8.10;4.88;;;;;;;;;;5131238;27;20047;-59
2023/06/03 02:52:11;;;;;;;10.50;5.25;;;;;;;;;;5128285;27;20480;-59
2023/06/03 02:54:38;;;;;;;7.78;5.20;;;;;;;;;;5135164;27;20069;-58
2023/06/03 02:57:07;;;;;;;9.98;5.70;;;;;;;;;;5134859;27;20062;-59
2023/06/03 02:59:34;;;;;;;9.40;5.50;;;;;;;;;;5127803;27;20055;-58
2023/06/03 03:02:01;;;;;;;8.43;5.63;;;;;;;;;;5121288;27;20062;-59
2023/06/03 03:04:33;;;;;;;9.18;5.35;;;;;;;;;;5128675;27;20058;-58
2023/06/03 03:07:02;;;;;;;9.57;5.78;;;;;;;;;;5134504;27;20058;-59
2023/06/03 03:09:28;;;;;;;6.95;4.90;;;;;;;;;;5131651;27;20062;-58
2023/06/03 03:11:55;;;;;;;7.63;5.05;;;;;;;;;;5128952;27;20062;-59
2023/06/03 03:14:22;;;;;;;8.18;5.43;;;;;;;;;;5131561;27;20385;-59
2023/06/03 03:16:49;;;;;;;7.28;5.07;;;;;;;;;;5128583;27;20050;-59
2023/06/03 03:19:16;;;;;;;8.63;6.00;;;;;;;;;;5133604;27;20058;-59
2023/06/03 03:21:43;;;;;;;7.53;5.22;;;;;;;;;;5133471;27;20058;-59
2023/06/03 03:24:11;;;;;;;8.88;5.43;;;;;;;;;;5131999;27;20051;-59
2023/06/03 03:26:38;;;;;;;6.82;5.63;;;;;;;;;;5133025;27;20047;-59
2023/06/03 03:29:06;;;;;;;8.80;5.47;;;;;;;;;;5133155;27;20498;-59
2023/06/03 03:31:32;;;;;;;11.75;5.53;;;;;;;;;;5134908;27;20059;-59
2023/06/03 03:34:00;;;;;;;10.63;5.80;;;;;;;;;;5135542;27;20415;-59
2023/06/03 03:36:30;;;;;;;9.60;6.32;;;;;;;;;;5135596;27;20051;-59
2023/06/03 03:39:01;;;;;;;8.50;5.75;;;;;;;;;;5127727;27;20051;-59
2023/06/03 03:41:29;;;;;;;8.23;5.57;;;;;;;;;;5130880;27;20055;-59
2023/06/03 03:43:56;;;;;;;9.32;5.68;;;;;;;;;;5132188;27;20054;-59
2023/06/03 03:46:22;;;;;;;8.73;5.50;;;;;;;;;;5129536;27;20399;-59
2023/06/03 03:48:49;;;;;;;8.45;5.65;;;;;;;;;;5132788;27;20047;-59
2023/06/03 03:51:16;;;;;;;7.50;5.35;;;;;;;;;;5125004;27;20047;-59
2023/06/03 03:53:43;;;;;;;8.10;5.15;;;;;;;;;;5131412;27;20054;-59
2023/06/03 03:56:10;;;;;;;8.77;5.38;;;;;;;;;;5129562;27;20432;-59
2023/06/03 03:58:41;;;;;;;7.63;5.57;;;;;;;;;;5130199;27;20051;-59
2023/06/03 04:01:09;;;;;;;7.63;5.00;;;;;;;;;;5112866;27;20051;-59
2023/06/03 04:03:40;;;;;;;10.73;5.95;;;;;;;;;;5132404;27;20533;-59
2023/06/03 04:06:07;;;;;;;7.22;5.50;;;;;;;;;;5132565;27;20058;-59
2023/06/03 04:08:39;;;;;;;9.48;5.60;;;;;;;;;;5132966;27;20047;-59
2023/06/03 04:11:06;;;;;;;7.75;5.47;;;;;;;;;;5129859;27;20136;-59
2023/06/03 04:13:34;;;;;;;8.80;5.53;;;;;;;;;;5132005;27;20050;-59
2023/06/03 04:16:04;;;;;;;8.20;5.47;;;;;;;;;;5130777;27;20044;-58
2023/06/03 04:18:32;;;;;;;6.55;4.90;;;;;;;;;;5133228;27;20047;-59
2023/06/03 04:21:00;;;;;;;7.45;5.38;;;;;;;;;;5132163;27;20047;-59
2023/06/03 04:23:27;;;;;;;7.18;5.65;;;;;;;;;;5131678;27;20054;-59
2023/06/03 04:25:55;;;;;;;7.93;5.57;;;;;;;;;;5130698;27;20051;-59
2023/06/03 04:28:21;;;;;;;8.35;5.20;;;;;;;;;;5132435;27;20438;-59
2023/06/03 04:30:48;;;;;;;8.35;5.20;;;;;;;;;;5130621;27;20051;-58
2023/06/03 04:33:16;;;;;;;9.02;4.72;;;;;;;;;;5132163;27;20051;-59
2023/06/03 04:35:43;;;;;;;9.50;5.63;;;;;;;;;;5132290;27;20047;-59
2023/06/03 04:38:11;;;;;;;9.90;5.90;;;;;;;;;;5128871;27;20399;-59
2023/06/03 04:40:38;;;;;;;7.85;5.50;;;;;;;;;;5132133;27;20053;-59
2023/06/03 04:43:05;;;;;;;11.48;5.78;;;;;;;;;;5132689;27;20051;-59
2023/06/03 04:45:32;;;;;;;8.75;5.25;;;;;;;;;;5128712;27;20438;-59
2023/06/03 04:48:01;;;;;;;12.43;5.97;;;;;;;;;;5131425;27;20047;-59
2023/06/03 04:50:35;;;;;;;11.15;5.63;;;;;;;;;;5127686;27;20387;-59
2023/06/03 04:53:02;;;;;;;7.57;5.00;;;;;;;;;;5132117;27;20484;-59
2023/06/03 04:55:30;;;;;;;6.30;4.68;;;;;;;;;;5131082;27;20047;-58
2023/06/03 04:58:00;;;;;;;6.80;5.13;;;;;;;;;;5132980;27;20055;-59
2023/06/03 05:00:27;;;;;;;7.38;4.85;;;;;;;;;;5114803;27;20047;-59
2023/06/03 05:02:56;;;;;;;6.40;4.50;;;;;;;;;;5127937;27;20051;-59
2023/06/03 05:05:24;;;;;;;8.73;5.33;;;;;;;;;;5130306;27;20042;-59
2023/06/03 05:07:52;;;;;;;8.20;4.80;;;;;;;;;;5124983;27;20058;-59
2023/06/03 05:10:19;;;;;;;6.60;4.55;;;;;;;;;;5127229;27;20163;-59
2023/06/03 05:12:46;;;;;;;5.53;4.45;;;;;;;;;;5123212;27;20423;-59
2023/06/03 05:15:13;;;;;;;5.35;4.30;;;;;;;;;;5131286;27;20384;-59
2023/06/03 05:17:40;;;;;;;9.15;4.85;;;;;;;;;;5129169;27;20047;-59
2023/06/03 05:20:07;;;;;;;6.60;4.35;;;;;;;;;;5133653;27;20055;-59
2023/06/03 05:22:34;;;;;;;7.40;4.35;;;;;;;;;;5132276;27;20054;-59
2023/06/03 05:25:02;;;;;;;6.47;3.47;;;;;;;;;;5127810;27;20062;-59
2023/06/03 05:27:29;;;;;;;5.30;4.13;;;;;;;;;;5128131;27;20047;-59
2023/06/03 05:29:56;;;;;;;6.65;2.55;;;;;;;;;;5127426;27;20078;-59
2023/06/03 05:32:23;;;;;;;5.47;2.70;;;;;;;;;;5132585;27;20043;-59
2023/06/03 05:34:50;;;;;;;6.60;2.60;;;;;;;;;;5130690;27;20399;-59
2023/06/03 05:37:16;;;;;;;4.60;2.47;;;;;;;;;;5129335;28;20058;-59
2023/06/03 05:39:43;;;;;;;6.15;2.67;;;;;;;;;;5127213;27;20047;-59
2023/06/03 05:42:11;;;;;;;5.40;2.35;;;;;;;;;;5131789;27;20054;-59
2023/06/03 05:44:38;;;;;;;4.75;2.50;;;;;;;;;;5129235;28;20066;-58
2023/06/03 05:47:05;;;;;;;4.70;2.70;;;;;;;;;;5128912;28;20404;-59
2023/06/03 05:49:32;;;;;;;4.47;2.58;;;;;;;;;;5128819;28;20046;-58
2023/06/03 05:51:58;;;;;;;4.45;2.50;;;;;;;;;;5127688;27;20058;-59
2023/06/03 05:54:28;;;;;;;2.95;2.30;;;;;;;;;;5116540;28;20043;-59
2023/06/03 05:56:56;;;;;;;5.13;2.47;;;;;;;;;;5127935;27;20051;-59
2023/06/03 05:59:24;;;;;;;3.58;2.03;;;;;;;;;;5128530;27;20483;-59
2023/06/03 06:01:51;;;;;;;4.47;2.55;;;;;;;;;;5120145;27;20050;-59
2023/06/03 06:04:18;;;;;;;4.80;2.40;;;;;;;;;;5134155;27;20066;-59
2023/06/03 06:06:44;;;;;;;3.28;2.38;;;;;;;;;;5133358;27;20055;-59
2023/06/03 06:09:11;;;;;;;4.97;2.35;;;;;;;;;;5133128;27;20055;-59
2023/06/03 06:11:38;;;;;;;3.17;2.05;;;;;;;;;;5131744;27;20043;-59
2023/06/03 06:14:05;;;;;;;3.45;2.08;;;;;;;;;;5133811;27;20055;-59
2023/06/03 06:16:33;;;;;;;5.32;1.98;;;;;;;;;;5130442;27;20054;-59
2023/06/03 06:19:00;;;;;;;4.70;2.13;;;;;;;;;;5129773;27;20506;-59
2023/06/03 06:21:27;;;;;;;5.13;2.47;;;;;;;;;;5133454;27;20047;-59
2023/06/03 06:23:54;;;;;;;4.25;2.17;;;;;;;;;;5130911;27;20159;-59
2023/06/03 06:26:21;;;;;;;2.95;1.83;;;;;;;;;;5132400;27;20078;-58
2023/06/03 06:28:47;;;;;;;4.95;1.88;;;;;;;;;;5130628;27;20059;-59
2023/06/03 06:31:15;;;;;;;5.25;1.88;;;;;;;;;;5126081;27;20051;-58
2023/06/03 06:33:47;;;;;;;3.58;1.70;;;;;;;;;;5126612;27;20053;-59
2023/06/03 06:36:28;;;;;;;2.63;1.85;;;;;;;;;;5130769;27;20047;-59
2023/06/03 06:38:55;;;;;;;3.72;2.05;;;;;;;;;;5131122;27;20059;-59
2023/06/03 06:41:22;;;;;;;3.17;1.60;;;;;;;;;;5127151;27;20046;-59
2023/06/03 06:43:48;;;;;;;7.47;1.42;;;;;;;;;;5133066;27;20051;-59
2023/06/03 06:46:15;;;;;;;3.30;1.50;;;;;;;;;;5130866;27;20468;-59
2023/06/03 06:48:44;;;;;;;3.97;1.38;;;;;;;;;;5134252;27;20054;-58
2023/06/03 06:51:12;;;;;;;3.00;1.40;;;;;;;;;;5131433;27;20043;-58
2023/06/03 06:53:39;;;;;;;2.80;1.10;;;;;;;;;;5132789;27;20054;-58
2023/06/03 06:56:08;;;;;;;3.13;1.40;;;;;;;;;;5132530;27;20058;-57
2023/06/03 06:58:35;;;;;;;2.63;1.30;;;;;;;;;;5129928;27;20054;-58
2023/06/03 07:01:05;;;;;;;3.50;1.30;;;;;;;;;;5119704;27;20051;-58
2023/06/03 07:03:32;;;;;;;3.30;1.20;;;;;;;;;;5126477;27;20547;-58
2023/06/03 07:06:00;;;;;;;6.93;1.20;;;;;;;;;;5133650;27;20050;-58
2023/06/03 07:08:27;;;;;;;3.78;1.40;;;;;;;;;;5132412;27;20051;-58
2023/06/03 07:10:56;;;;;;;2.35;1.33;;;;;;;;;;5134677;27;20383;-58
2023/06/03 07:13:23;;;;;;;2.97;1.70;;;;;;;;;;5130523;27;20055;-58
2023/06/03 07:15:50;;;;;;;2.67;1.40;;;;;;;;;;5133203;27;20051;-58
2023/06/03 07:18:17;;;;;;;2.90;1.40;;;;;;;;;;5133262;27;20047;-58
2023/06/03 07:20:45;;;;;;;3.25;1.20;;;;;;;;;;5131574;27;20047;-58
2023/06/03 07:23:13;;;;;;;3.05;1.30;;;;;;;;;;5134278;27;20396;-58
2023/06/03 07:25:41;;;;;;;3.80;1.55;;;;;;;;;;5138105;27;20054;-58
2023/06/03 07:28:09;;;;;;;2.40;1.10;;;;;;;;;;5134429;27;20051;-58
2023/06/03 07:30:36;;;;;;;4.38;1.58;;;;;;;;;;5135557;27;20058;-58
2023/06/03 07:33:04;;;;;;;2.78;1.20;;;;;;;;;;5132699;27;20062;-58
2023/06/03 07:35:30;;;;;;;2.35;0.90;;;;;;;;;;5133675;27;20494;-58
2023/06/03 07:37:57;;;;;;;2.15;1.20;;;;;;;;;;5130854;27;20054;-58
2023/06/03 07:40:30;;;;;;;4.22;1.40;;;;;;;;;;5127125;27;20047;-58
2023/06/03 07:42:57;;;;;;;2.70;1.23;;;;;;;;;;5130473;27;20145;-56
2023/06/03 07:45:26;;;;;;;2.25;1.30;;;;;;;;;;5128515;27;20133;-56
2023/06/03 07:47:54;;;;;;;2.15;1.00;;;;;;;;;;5123144;27;20043;-56
2023/06/03 07:50:23;;;;;;;3.25;1.40;;;;;;;;;;5132422;27;20051;-56
2023/06/03 07:52:57;;;;;;;2.53;1.30;;;;;;;;;;5130303;27;20047;-56
2023/06/03 07:55:24;;;;;;;4.05;1.20;;;;;;;;;;5127121;27;20047;-57
2023/06/03 07:57:53;;;;;;;2.03;1.10;;;;;;;;;;5128614;27;20054;-56
2023/06/03 08:00:19;;;;;;;2.50;1.10;;;;;;;;;;5114625;27;20492;-57
2023/06/03 08:02:46;;;;;;;3.05;1.20;;;;;;;;;;5111671;27;20043;-57
2023/06/03 08:05:14;;;;;;;4.40;1.30;;;;;;;;;;5130904;27;20066;-57
2023/06/03 08:07:43;;;;;;;3.28;1.20;;;;;;;;;;5131918;27;20058;-57
2023/06/03 08:10:16;;;;;;;1.50;1.00;;;;;;;;;;5131308;27;20047;-57
2023/06/03 08:12:43;;;;;;;4.50;1.48;;;;;;;;;;5129619;27;20494;-57
2023/06/03 08:15:20;;;;;;;4.03;1.40;;;;;;;;;;5131448;27;20075;-58
2023/06/03 08:17:46;;;;;;;4.45;1.40;;;;;;;;;;5126115;27;20467;-58
2023/06/03 08:20:14;;;;;;;2.42;1.38;;;;;;;;;;5123470;27;20048;-58
2023/06/03 08:22:41;;;;;;;5.25;1.25;;;;;;;;;;5129080;27;20067;-58
2023/06/03 08:25:09;;;;;;;4.07;1.60;;;;;;;;;;5125207;27;20511;-58
2023/06/03 08:27:36;;;;;;;3.35;1.25;;;;;;;;;;5128806;27;20050;-58
2023/06/03 08:30:03;;;;;;;2.92;1.30;;;;;;;;;;5128666;27;20050;-58
2023/06/03 08:32:33;;;;;;;3.55;1.20;;;;;;;;;;5129409;27;20431;-58
2023/06/03 08:35:03;;;;;;;2.40;1.30;;;;;;;;;;5131974;27;20054;-58
2023/06/03 08:37:31;;;;;;;3.28;1.35;;;;;;;;;;5125964;27;20050;-59
2023/06/03 08:39:58;;;;;;;2.95;1.27;;;;;;;;;;5129243;27;20054;-59
2023/06/03 08:42:30;;;;;;;3.78;1.40;;;;;;;;;;5135827;27;20132;-58
2023/06/03 08:45:01;;;;;;;5.90;1.40;;;;;;;;;;5124400;27;20047;-59
2023/06/03 08:47:33;;;;;;;3.42;1.23;;;;;;;;;;5128561;27;20051;-62
2023/06/03 08:50:05;;;;;;;2.47;1.15;;;;;;;;;;5116352;27;20056;-62
2023/06/03 08:52:45;;;;;;;3.85;1.23;;;;;;;;;;5132883;27;20051;-59
2023/06/03 08:55:13;;;;;;;2.00;1.20;;;;;;;;;;5131087;27;20059;-62
2023/06/03 08:57:41;;;;;;;2.03;1.23;;;;;;;;;;5129362;27;20056;-62
2023/06/03 09:00:09;;;;;;;4.00;1.10;;;;;;;;;;5118392;27;20066;-62
2023/06/03 09:02:36;;;;;;;3.63;1.50;;;;;;;;;;5126818;27;20050;-62
2023/06/03 09:05:06;;;;;;;1.95;1.08;;;;;;;;;;5128022;27;20066;-58
2023/06/03 09:07:33;;;;;;;3.20;1.17;;;;;;;;;;5131116;27;20066;-58
2023/06/03 09:10:12;;;;;;;2.17;1.37;;;;;;;;;;5131015;27;20069;-57
2023/06/03 09:12:39;;;;;;;2.45;1.33;;;;;;;;;;5122796;27;20050;-61
2023/06/03 09:15:07;;;;;;;4.60;1.30;;;;;;;;;;5129172;27;20058;-61
2023/06/03 09:17:36;;;;;;;3.58;1.45;;;;;;;;;;5127135;27;20074;-61
2023/06/03 09:20:05;;;;;;;3.85;1.20;;;;;;;;;;5125607;27;20051;-61
2023/06/03 09:22:32;;;;;;;1.98;1.10;;;;;;;;;;5129852;27;20404;-62
2023/06/03 09:24:59;;;;;;;1.95;1.08;;;;;;;;;;5130745;27;20066;-57
2023/06/03 09:27:26;;;;;;;2.28;1.10;;;;;;;;;;5131146;27;20062;-58
2023/06/03 09:29:55;;;;;;;2.83;1.17;;;;;;;;;;5130099;27;20051;-58
2023/06/03 09:32:22;;;;;;;8.23;1.40;;;;;;;;;;5137715;28;20054;-59
2023/06/03 09:34:50;;;;;;;4.13;1.60;;;;;;;;;;5130504;28;20058;-59
2023/06/03 09:37:18;;;;;;;3.00;1.55;;;;;;;;;;5131713;27;20078;-59
2023/06/03 09:39:45;;;;;;;7.60;1.08;;;;;;;;;;5135588;27;20047;-59
2023/06/03 09:42:12;;;;;;;2.80;1.23;;;;;;;;;;5134946;27;20054;-62
2023/06/03 09:44:40;;;;;;;2.22;1.20;;;;;;;;;;5132614;27;20046;-62
2023/06/03 09:47:06;;;;;;;;;;;;;;;;;;5135188;27;20051;-62
2023/06/03 09:49:34;;;;;;;6.95;2.15;;;;;;;;;;5124733;27;19935;-64
2023/06/03 09:52:01;;;;;;;3.38;1.30;;;;;;;;;;5128511;27;20043;-62
2023/06/03 09:54:29;;;;;;;4.53;1.30;;;;;;;;;;5130236;27;20067;-61
2023/06/03 09:57:09;;;;;;;4.35;1.48;;;;;;;;;;5132748;27;20054;-62
2023/06/03 09:59:35;;;;;;;4.45;1.40;;;;;;;;;;5129862;27;20065;-62
2023/06/03 10:02:11;;;;;;;3.22;1.48;;;;;;;;;;5128026;27;20055;-62
2023/06/03 10:04:39;;;;;;;2.72;1.23;;;;;;;;;;5127889;27;20054;-62
2023/06/03 10:07:10;;;;;;;2.88;1.30;;;;;;;;;;5134377;27;20055;-62
2023/06/03 10:09:38;;;;;;;3.72;1.17;;;;;;;;;;5136875;27;20463;-62
2023/06/03 10:12:07;;;;;;;4.40;1.40;;;;;;;;;;5131800;27;20400;-62
2023/06/03 10:14:34;;;;;;;3.88;1.35;;;;;;;;;;5135672;27;20051;-61
2023/06/03 10:17:05;;;;;;;1.88;1.15;;;;;;;;;;5129056;27;20511;-62
2023/06/03 10:19:33;;;;;;;3.53;1.25;;;;;;;;;;5136297;27;20055;-62
2023/06/03 10:22:00;;;;;;;7.47;1.50;;;;;;;;;;5135463;27;20415;-62
2023/06/03 10:24:27;;;;;;;5.60;1.55;;;;;;;;;;5134541;27;20069;-62
2023/06/03 10:26:54;;;;;;;;;;;;;;;;;;5135934;27;20055;-62
2023/06/03 10:29:22;;;;;;;4.10;1.37;;;;;;;;;;5135915;27;19919;-62
2023/06/03 10:31:50;;;;;;;2.63;0.90;;;;;;;;;;5135299;27;20050;-62
2023/06/03 10:34:16;;;;;;;;;;;;;;;;;;5134440;27;20050;-62
2023/06/03 10:36:43;;;;;;;2.90;1.27;;;;;;;;;;5138095;27;19926;-59
2023/06/03 10:39:11;;;;;;;2.88;1.13;;;;;;;;;;5135814;27;20475;-62
2023/06/03 10:41:39;;;;;;;2.17;1.02;;;;;;;;;;5137016;27;20058;-62
2023/06/03 10:44:05;;;;;;;3.10;1.38;;;;;;;;;;5136507;27;20479;-62
2023/06/03 10:46:35;;;;;;;3.33;1.10;;;;;;;;;;5136315;27;20403;-62
2023/06/03 10:49:02;;;;;;;3.33;1.20;;;;;;;;;;5136573;27;20051;-62
2023/06/03 10:51:38;;;;;;;4.55;1.42;;;;;;;;;;5136762;27;20065;-62
2023/06/03 10:54:22;;;;;;;2.20;1.35;;;;;;;;;;5135375;27;20050;-62
2023/06/03 10:56:51;;;;;;;3.53;1.20;;;;;;;;;;5136116;27;20051;-62
2023/06/03 10:59:19;;;;;;;2.90;1.20;;;;;;;;;;5134543;27;20050;-62
2023/06/03 11:01:57;;;;;;;2.92;1.30;;;;;;;;;;5134877;27;20050;-62
2023/06/03 11:04:24;;;;;;;3.88;1.35;;;;;;;;;;5136063;27;20160;-62
2023/06/03 11:06:52;;;;;;;6.00;1.50;;;;;;;;;;5136274;27;20722;-62
2023/06/03 11:09:30;;;;;;;2.30;1.10;;;;;;;;;;5136272;27;20051;-62
2023/06/03 11:12:02;;;;;;;;;;;;;;;;;;5136234;27;20058;-62
2023/06/03 11:14:48;;;;;;;2.97;1.13;;;;;;;;;;5136167;27;19919;-63
2023/06/03 11:17:18;;;;;;;2.90;1.25;;;;;;;;;;5136463;27;20471;-58
2023/06/03 11:19:47;;;;;;;2.22;1.25;;;;;;;;;;5123332;27;20051;-59
2023/06/03 11:22:34;;;;;;;3.97;1.45;;;;;;;;;;5135331;27;20051;-59
2023/06/03 11:25:02;;;;;;;3.17;1.20;;;;;;;;;;5134194;27;20066;-58
2023/06/03 11:27:29;;;;;;;2.30;1.00;;;;;;;;;;5135621;27;20047;-58
2023/06/03 11:29:57;;;;;;;3.00;1.00;;;;;;;;;;5136118;27;20051;-58
2023/06/03 11:32:23;;;;;;;;;;;;;;;;;;5136332;27;20047;-58
2023/06/03 11:35:12;;;;;;;2.30;1.17;;;;;;;;;;5135604;27;19938;-58
2023/06/03 11:37:52;;;;;;;3.15;1.30;;;;;;;;;;5135135;27;20051;-58
2023/06/03 11:40:20;;;;;;;3.90;1.52;;;;;;;;;;5134321;27;20051;-58
2023/06/03 11:43:01;;;;;;;2.50;1.30;;;;;;;;;;5135603;27;20058;-58
2023/06/03 11:45:29;;;;;;;2.33;1.20;;;;;;;;;;5136233;27;20765;-59
2023/06/03 11:47:56;;;;;;;1.90;1.20;;;;;;;;;;5135211;27;20380;-59
2023/06/03 11:50:23;;;;;;;;;;;;;;;;;;5135955;27;20528;-59
2023/06/03 11:52:51;;;;;;;2.77;1.20;;;;;;;;;;5133910;27;19927;-59
2023/06/03 11:55:24;;;;;;;3.20;1.10;;;;;;;;;;5134956;27;20481;-58
2023/06/03 11:57:51;;;;;;;3.63;1.08;;;;;;;;;;5135057;27;20137;-58
2023/06/03 12:00:19;;;;;;;2.00;1.00;;;;;;;;;;5120491;27;20048;-60
2023/06/03 12:02:46;;;;;;;2.70;1.02;;;;;;;;;;5125768;27;20058;-59
2023/06/03 12:05:13;;;;;;;;;;;;;;;;;;5134353;27;20411;-59
2023/06/03 12:07:40;;;;;;;2.47;1.00;;;;;;;;;;5134138;27;19919;-59
2023/06/03 12:10:08;;;;;;;2.78;1.17;;;;;;;;;;5133200;27;20050;-59
2023/06/03 12:12:35;;;;;;;2.67;1.10;;;;;;;;;;5136666;27;20051;-59
2023/06/03 12:15:05;;;;;;;4.43;1.40;;;;;;;;;;5133738;27;20055;-58
2023/06/03 12:17:32;;;;;;;4.15;1.30;;;;;;;;;;5133889;27;20442;-59
2023/06/03 12:20:00;;;;;;;2.67;1.20;;;;;;;;;;5131481;27;20411;-60
2023/06/03 12:22:28;;;;;;;3.88;1.35;;;;;;;;;;5132527;27;20043;-60
2023/06/03 12:24:55;;;;;;;3.20;1.15;;;;;;;;;;5134533;27;20062;-59
2023/06/03 12:27:24;;;;;;;5.10;1.33;;;;;;;;;;5137578;27;20051;-59
2023/06/03 12:29:52;;;;;;;2.65;1.20;;;;;;;;;;5133767;27;20055;-59
2023/06/03 12:32:19;;;;;;;4.13;1.27;;;;;;;;;;5132840;27;20054;-60
2023/06/03 12:34:46;;;;;;;2.78;1.00;;;;;;;;;;5133584;27;20479;-60
2023/06/03 12:37:25;;;;;;;2.33;1.27;;;;;;;;;;5132035;27;20051;-60
2023/06/03 12:39:51;;;;;;;2.20;1.00;;;;;;;;;;5113853;28;20051;-60
2023/06/03 12:42:19;;;;;;;3.10;1.10;;;;;;;;;;5127025;27;20047;-60
2023/06/03 12:44:48;;;;;;;2.13;0.98;;;;;;;;;;5133660;27;20475;-60
2023/06/03 12:47:16;;;;;;;4.40;1.30;;;;;;;;;;5134349;27;20415;-60
2023/06/03 12:49:43;;;;;;;2.53;1.08;;;;;;;;;;5132931;27;20055;-60
2023/06/03 12:52:14;;;;;;;2.95;1.20;;;;;;;;;;5132795;27;20059;-60
2023/06/03 12:54:41;;;;;;;1.92;1.10;;;;;;;;;;5133328;27;20056;-60
2023/06/03 12:57:09;;;;;;;2.70;1.30;;;;;;;;;;5135440;27;20055;-60
2023/06/03 12:59:36;;;;;;;2.13;1.00;;;;;;;;;;5129277;27;20058;-60
2023/06/03 13:02:04;;;;;;;2.13;1.00;;;;;;;;;;5121966;27;20051;-60
2023/06/03 13:04:32;;;;;;;1.98;1.02;;;;;;;;;;5132837;27;20051;-58
2023/06/03 13:06:58;;;;;;;3.90;1.43;;;;;;;;;;5113734;28;20052;-60
2023/06/03 13:09:25;;;;;;;2.45;1.10;;;;;;;;;;5131540;27;20084;-58
2023/06/03 13:11:52;;;;;;;1.92;1.10;;;;;;;;;;5132902;27;20418;-59
2023/06/03 13:14:19;;;;;;;4.72;1.10;;;;;;;;;;5133048;27;20039;-58
2023/06/03 13:16:45;;;;;;;2.83;0.95;;;;;;;;;;5133466;27;20403;-58
2023/06/03 13:19:14;;;;;;;3.38;1.10;;;;;;;;;;5132761;27;20524;-58
2023/06/03 13:21:40;;;;;;;;;;;;;;;;;;5132418;27;20062;-58
2023/06/03 13:24:07;;;;;;;3.83;0.90;;;;;;;;;;5131434;27;19926;-58
2023/06/03 13:26:34;;;;;;;2.10;0.80;;;;;;;;;;5136577;27;20055;-59
2023/06/03 13:29:01;;;;;;;2.00;1.02;;;;;;;;;;5133502;27;20051;-58
2023/06/03 13:31:27;;;;;;;2.60;0.85;;;;;;;;;;5133920;28;20055;-58
2023/06/03 13:33:54;;;;;;;1.58;0.95;;;;;;;;;;5133801;28;20054;-58
2023/06/03 13:36:22;;;;;;;2.50;1.10;;;;;;;;;;5134081;28;20391;-58
2023/06/03 13:38:49;;;;;;;2.72;0.82;;;;;;;;;;5131462;27;20487;-59
2023/06/03 13:41:16;;;;;;;3.30;1.10;;;;;;;;;;5132893;27;20054;-59
2023/06/03 13:43:43;;;;;;;1.50;0.80;;;;;;;;;;5133417;28;20062;-59
2023/06/03 13:46:11;;;;;;;2.08;0.80;;;;;;;;;;5133885;28;20051;-59
2023/06/03 13:48:38;;;;;;;2.83;0.90;;;;;;;;;;5133688;28;20054;-59
2023/06/03 13:51:05;;;;;;;1.88;0.93;;;;;;;;;;5133428;28;20051;-60
2023/06/03 13:53:33;;;;;;;2.38;0.80;;;;;;;;;;5133273;28;20518;-60
2023/06/03 13:56:00;;;;;;;2.95;1.00;;;;;;;;;;5132702;27;20069;-60
2023/06/03 13:58:27;;;;;;;3.03;0.88;;;;;;;;;;5132749;28;20047;-59
2023/06/03 14:00:53;;;;;;;1.98;0.90;;;;;;;;;;5122073;28;20055;-59
2023/06/03 14:03:20;;;;;;;2.00;0.95;;;;;;;;;;5133321;28;20411;-59
2023/06/03 14:05:48;;;;;;;1.75;0.93;;;;;;;;;;5133413;28;20396;-59
2023/06/03 14:08:15;;;;;;;1.83;0.70;;;;;;;;;;5132997;28;20062;-60
2023/06/03 14:10:43;;;;;;;2.00;0.68;;;;;;;;;;5132650;27;20517;-60
2023/06/03 14:13:10;;;;;;;1.30;0.70;;;;;;;;;;5133286;28;20055;-59
2023/06/03 14:15:37;;;;;;;3.33;0.82;;;;;;;;;;5133404;28;20047;-59
2023/06/03 14:18:04;;;;;;;3.50;1.10;;;;;;;;;;5133009;28;20047;-59
2023/06/03 14:20:31;;;;;;;2.83;1.00;;;;;;;;;;5130888;27;20047;-59
2023/06/03 14:22:57;;;;;;;1.92;0.80;;;;;;;;;;5134187;27;20054;-59
2023/06/03 14:25:24;;;;;;;2.53;0.80;;;;;;;;;;5135802;27;20054;-60
2023/06/03 14:27:52;;;;;;;1.70;0.73;;;;;;;;;;5133086;27;20055;-59
2023/06/03 14:30:19;;;;;;;2.50;0.85;;;;;;;;;;5131227;27;20488;-59
2023/06/03 14:32:46;;;;;;;2.60;0.80;;;;;;;;;;5132802;27;20051;-59
2023/06/03 14:35:13;;;;;;;1.70;0.70;;;;;;;;;;5131001;27;20491;-61
2023/06/03 14:37:39;;;;;;;1.58;0.60;;;;;;;;;;5129309;27;20050;-59
2023/06/03 14:40:07;;;;;;;1.42;0.77;;;;;;;;;;5133561;27;20391;-59
2023/06/03 14:42:33;;;;;;;2.15;0.82;;;;;;;;;;5134583;27;20058;-59
2023/06/03 14:45:02;;;;;;;1.60;1.00;;;;;;;;;;5134975;27;20407;-59
2023/06/03 14:47:29;;;;;;;6.03;0.80;;;;;;;;;;5135941;27;20054;-59
2023/06/03 14:49:57;;;;;;;2.10;0.60;;;;;;;;;;5134369;27;20054;-59
2023/06/03 14:52:24;;;;;;;2.15;0.70;;;;;;;;;;5132186;27;20043;-59